Time;durP1;ratioP1;P1;durP2;ratioP2;P2;SDS_P1;SDS_P2;PMS_P1;PMS_P2;Temp;Humidity;BMP_temperature;BMP_pressure;BME280_temperature;BME280_humidity;BME280_pressure;Samples;Min_cycle;Max_cycle;Signal;HPM_P1;HPM_P2
2021/12/07 00:02:24;;;;;;;;;3.50;1.75;;;;;8.01;100.00;101002.19;5019637;28;45273;-77
2021/12/07 00:04:50;;;;;;;;;4.50;4.00;;;;;7.91;100.00;100993.03;5018137;28;46398;-77
2021/12/07 00:07:17;;;;;;;;;3.50;2.00;;;;;7.99;100.00;101001.22;5018197;28;45408;-78
2021/12/07 00:09:45;;;;;;;;;2.75;2.00;;;;;8.03;100.00;101001.47;5018857;28;45423;-77
2021/12/07 00:12:12;;;;;;;;;5.00;2.25;;;;;7.98;100.00;101002.03;5018505;28;45387;-77
2021/12/07 00:14:40;;;;;;;;;2.50;1.75;;;;;7.97;100.00;101007.97;5017980;28;46278;-78
2021/12/07 00:17:07;;;;;;;;;6.50;3.00;;;;;7.95;100.00;101000.13;5018426;28;45939;-78
2021/12/07 00:19:34;;;;;;;;;1.50;1.50;;;;;7.96;100.00;100996.75;5018913;28;45345;-77
2021/12/07 00:22:02;;;;;;;;;4.50;2.25;;;;;7.95;100.00;100994.09;5018795;28;45323;-77
2021/12/07 00:24:28;;;;;;;;;2.00;2.00;;;;;7.79;100.00;100967.41;5017742;28;46852;-77
2021/12/07 00:26:54;;;;;;;;;1.50;1.50;;;;;7.78;100.00;100962.19;5018480;28;45379;-77
2021/12/07 00:29:23;;;;;;;;;1.00;1.00;;;;;7.90;100.00;100986.97;5018242;28;45387;-77
2021/12/07 00:32:14;;;;;;;;;2.75;2.00;;;;;7.76;100.00;100969.84;5017954;28;45166;-77
2021/12/07 00:34:55;;;;;;;;;5.50;1.00;;;;;7.91;100.00;101003.34;5017729;28;45522;-77
2021/12/07 00:37:21;;;;;;;;;2.75;1.00;;;;;7.84;100.00;100991.78;5018096;28;45535;-77
2021/12/07 00:39:47;;;;;;;;;2.75;1.75;;;;;7.85;100.00;100996.13;5018167;28;45410;-77
2021/12/07 00:42:12;;;;;;;;;3.75;2.50;;;;;7.92;100.00;101010.28;5018361;28;45352;-77
2021/12/07 00:44:38;;;;;;;;;6.75;1.00;;;;;7.93;100.00;101016.31;5017485;28;46229;-77
2021/12/07 00:47:04;;;;;;;;;3.00;1.00;;;;;7.83;100.00;100992.56;5013087;28;45356;-77
2021/12/07 00:49:29;;;;;;;;;3.00;3.00;;;;;7.95;100.00;101015.59;4998182;28;45529;-79
2021/12/07 00:51:55;;;;;;;;;2.25;1.50;;;;;7.77;100.00;100979.34;5001820;28;45269;-78
2021/12/07 00:54:21;;;;;;;;;4.00;2.00;;;;;7.94;100.00;101011.22;5017587;28;45497;-77
2021/12/07 00:56:47;;;;;;;;;2.25;1.00;;;;;7.97;100.00;101019.16;5017377;28;45279;-78
2021/12/07 00:59:13;;;;;;;;;1.25;1.25;;;;;7.86;100.00;101010.81;5018034;28;45890;-77
2021/12/07 01:01:39;;;;;;;;;2.00;2.00;;;;;8.00;100.00;101029.66;5018134;28;45527;-77
2021/12/07 01:04:06;;;;;;;;;3.00;0.00;;;;;7.97;100.00;101026.03;5017859;28;45414;-77
2021/12/07 01:06:47;;;;;;;;;1.00;1.00;;;;;7.96;100.00;101013.91;5017528;28;45334;-77
2021/12/07 01:09:25;;;;;;;;;2.00;0.50;;;;;8.01;100.00;101020.22;5018234;28;45242;-77
2021/12/07 01:25:31;;;;;;;;;0.50;0.00;;;;;7.99;100.00;101006.38;5017548;28;45777;-77
2021/12/07 01:28:03;;;;;;;;;0.50;0.50;;;;;7.93;100.00;101006.00;5017278;28;45259;-78
2021/12/07 01:30:39;;;;;;;;;1.00;1.00;;;;;7.89;100.00;101008.38;5017744;28;45371;-78
2021/12/07 01:37:08;;;;;;;;;3.00;0.50;;;;;7.78;100.00;101008.56;4988713;28;45615;-77
2021/12/07 01:41:39;;;;;;;;;1.00;1.00;;;;;7.55;100.00;100984.91;5016809;28;45439;-77
2021/12/07 01:46:58;;;;;;;;;1.00;0.75;;;;;7.59;100.00;101008.34;5017114;28;45946;-77
2021/12/07 02:00:09;;;;;;;;;1.00;1.00;;;;;7.47;100.00;101015.34;5017424;28;45326;-77
2021/12/07 02:02:34;;;;;;;;;0.25;0.25;;;;;7.53;100.00;101026.03;5016506;28;45389;-78
2021/12/07 02:05:00;;;;;;;;;0.75;0.75;;;;;7.58;100.00;101029.75;5017252;28;45242;-77
2021/12/07 02:07:27;;;;;;;;;1.75;1.00;;;;;7.61;100.00;101023.94;5016880;28;46016;-78
2021/12/07 02:09:56;;;;;;;;;1.00;1.00;;;;;7.65;100.00;101019.84;5016815;28;45807;-78
2021/12/07 02:12:23;;;;;;;;;0.50;0.50;;;;;7.69;100.00;101026.94;5016632;28;45454;-77
2021/12/07 02:14:49;;;;;;;;;1.50;0.75;;;;;7.67;100.00;101021.72;5016861;28;45479;-77
2021/12/07 02:17:20;;;;;;;;;0.25;0.25;;;;;7.63;100.00;101022.31;5016677;28;45340;-77
2021/12/07 02:19:46;;;;;;;;;3.00;0.75;;;;;7.60;100.00;101024.72;5016829;28;45344;-77
2021/12/07 02:22:12;;;;;;;;;1.00;0.00;;;;;7.46;100.00;101013.56;5016562;28;45173;-77
2021/12/07 02:24:38;;;;;;;;;1.00;1.00;;;;;7.48;100.00;101017.13;5017028;28;45514;-78
2021/12/07 02:27:04;;;;;;;;;0.25;0.00;;;;;7.40;100.00;101010.63;5016255;28;46142;-78
2021/12/07 02:29:30;;;;;;;;;2.00;1.00;;;;;7.46;100.00;101029.00;5016407;28;45222;-78
2021/12/07 02:31:57;;;;;;;;;0.75;0.00;;;;;7.41;100.00;101017.56;5016845;28;45518;-77
2021/12/07 02:34:24;;;;;;;;;1.00;1.00;;;;;7.44;100.00;101025.47;4999834;28;45666;-77
2021/12/07 02:36:51;;;;;;;;;0.75;0.75;;;;;7.40;100.00;101037.25;4998548;28;46924;-77
2021/12/07 02:39:17;;;;;;;;;0.00;0.00;;;;;7.31;100.00;101021.25;5016684;28;45198;-76
2021/12/07 02:41:43;;;;;;;;;0.75;0.75;;;;;7.31;100.00;101025.53;5015075;28;45406;-77
2021/12/07 02:44:09;;;;;;;;;1.00;0.00;;;;;7.31;100.00;101023.81;5016797;28;45549;-77
2021/12/07 02:46:37;;;;;;;;;0.00;0.00;;;;;7.26;100.00;101015.81;5015746;28;46183;-80
2021/12/07 02:49:04;;;;;;;;;1.25;1.00;;;;;7.30;100.00;101023.75;5005912;28;45931;-80
2021/12/07 02:51:30;;;;;;;;;2.50;0.00;;;;;7.30;100.00;101031.47;5016308;28;45429;-78
2021/12/07 02:53:57;;;;;;;;;1.00;0.00;;;;;7.17;100.00;101010.09;4998833;28;45597;-78
2021/12/07 02:56:24;;;;;;;;;1.00;1.00;;;;;7.15;100.00;101005.66;5016062;28;46149;-81
2021/12/07 02:58:55;;;;;;;;;0.00;0.00;;;;;7.23;100.00;101019.91;5011798;28;45503;-78
2021/12/07 03:01:26;;;;;;;;;0.25;0.25;;;;;7.16;100.00;101012.59;4996986;28;45324;-77
2021/12/07 03:04:07;;;;;;;;;3.75;0.00;;;;;7.07;100.00;101016.34;4996729;28;45358;-78
2021/12/07 03:26:06;;;;;;;;;2.75;1.50;;;;;7.19;100.00;101034.28;5016418;28;45249;-78
2021/12/07 03:28:34;;;;;;;;;3.50;1.50;;;;;7.23;100.00;101045.66;5000614;28;46410;-78
2021/12/07 03:31:00;;;;;;;;;0.00;0.00;;;;;7.23;100.00;101053.38;5015168;28;45729;-78
2021/12/07 03:33:26;;;;;;;;;1.75;1.75;;;;;7.23;100.00;101063.66;5016228;28;45464;-77
2021/12/07 03:35:52;;;;;;;;;4.25;1.75;;;;;7.28;100.00;101067.44;5015848;28;45420;-78
2021/12/07 03:38:17;;;;;;;;;1.00;1.00;;;;;7.30;100.00;101068.41;5014743;28;46295;-78
2021/12/07 03:40:43;;;;;;;;;1.25;1.25;;;;;7.27;100.00;101060.50;5015315;28;45479;-78
2021/12/07 03:43:10;;;;;;;;;2.00;1.00;;;;;7.30;100.00;101052.94;5015550;28;45632;-78
2021/12/07 03:45:36;;;;;;;;;1.00;1.00;;;;;7.26;100.00;101041.56;5015683;28;45396;-77
2021/12/07 03:48:05;;;;;;;;;2.00;0.25;;;;;7.30;100.00;101050.38;5015950;28;45441;-77
2021/12/07 03:50:31;;;;;;;;;3.75;1.00;;;;;7.24;100.00;101044.84;5015612;28;45450;-78
2021/12/07 03:52:57;;;;;;;;;1.00;1.00;;;;;7.33;100.00;101055.72;5016160;28;45273;-79
2021/12/07 03:55:22;;;;;;;;;1.00;0.75;;;;;7.37;100.00;101049.97;5015574;28;45551;-77
2021/12/07 03:57:48;;;;;;;;;0.75;0.75;;;;;7.30;100.00;101021.16;5014406;28;46133;-77
2021/12/07 04:00:19;;;;;;;;;4.00;0.00;;;;;7.32;100.00;101017.00;5015261;28;45272;-77
2021/12/07 04:02:46;;;;;;;;;3.00;1.00;;;;;7.34;100.00;101018.88;5014237;28;45435;-77
2021/12/07 04:05:15;;;;;;;;;3.00;1.00;;;;;7.28;100.00;101023.66;4997390;28;45611;-79
2021/12/07 04:07:42;;;;;;;;;2.00;1.00;;;;;7.40;100.00;101026.97;5017905;28;45231;-77
2021/12/07 04:10:10;;;;;;;;;0.75;0.25;;;;;7.43;100.00;101032.31;5018682;28;45214;-76
2021/12/07 04:12:37;;;;;;;;;3.25;1.75;;;;;7.27;100.00;101002.16;5018334;28;45424;-77
2021/12/07 04:15:08;;;;;;;;;2.00;1.00;;;;;7.33;100.00;101021.34;5019113;28;45496;-77
2021/12/07 04:17:35;;;;;;;;;2.00;2.00;;;;;7.46;100.00;101039.31;5018320;28;45617;-76
2021/12/07 04:20:01;;;;;;;;;1.50;0.50;;;;;7.40;100.00;101038.97;5018623;28;45344;-76
2021/12/07 04:22:27;;;;;;;;;2.50;1.00;;;;;7.49;100.00;101043.78;5018487;28;45574;-76
2021/12/07 04:24:52;;;;;;;;;0.50;0.00;;;;;7.44;100.00;101039.25;5018470;28;45437;-76
2021/12/07 04:27:18;;;;;;;;;0.00;0.00;;;;;7.49;100.00;101038.66;5018518;28;46118;-76
2021/12/07 04:29:45;;;;;;;;;0.00;0.00;;;;;7.49;100.00;101036.94;5018147;28;45324;-77
2021/12/07 04:32:11;;;;;;;;;1.00;1.00;;;;;7.49;100.00;101034.38;5018173;28;45280;-76
2021/12/07 04:34:37;;;;;;;;;1.25;1.00;;;;;7.53;100.00;101046.66;5018521;28;45236;-79
2021/12/07 04:37:03;;;;;;;;;2.75;0.75;;;;;7.40;100.00;101013.19;5018353;28;45860;-76
2021/12/07 04:39:28;;;;;;;;;1.00;0.75;;;;;7.51;100.00;101021.56;5018356;28;45671;-80
2021/12/07 04:41:54;;;;;;;;;1.00;0.00;;;;;7.59;100.00;101046.13;5018570;28;45261;-77
2021/12/07 04:44:22;;;;;;;;;0.00;0.00;;;;;7.53;100.00;101030.28;5018924;28;45311;-78
2021/12/07 04:57:42;;;;;;;;;0.25;0.25;;;;;7.50;100.00;101040.44;5017536;28;45805;-77
2021/12/07 05:00:16;;;;;;;;;1.00;0.00;;;;;7.43;100.00;101027.16;5017783;28;45451;-76
2021/12/07 05:02:45;;;;;;;;;2.00;1.00;;;;;7.43;100.00;101034.00;5017789;28;45754;-77
2021/12/07 05:05:13;;;;;;;;;0.00;0.00;;;;;7.40;100.00;101029.53;5018032;28;45608;-77
2021/12/07 05:07:52;;;;;;;;;1.00;1.00;;;;;7.28;100.00;101009.09;5017451;28;45503;-78
2021/12/07 05:16:31;;;;;;;;;3.00;2.00;;;;;7.38;100.00;101027.66;5012203;28;45792;-79
2021/12/07 05:37:59;;;;;;;;;0.00;0.00;;;;;7.16;100.00;101046.94;5017484;28;45603;-78
2021/12/07 05:39:54;;;;;;;;;1.75;1.00;;;;;6.99;100.00;101025.28;5007835;28;45918;-78
2021/12/07 05:42:24;;;;;;;;;2.00;1.75;;;;;6.99;100.00;101030.44;5017621;28;45363;-78
2021/12/07 05:44:51;;;;;;;;;2.25;1.00;;;;;6.94;100.00;101027.59;5017388;28;45340;-79
2021/12/07 05:47:17;;;;;;;;;3.00;2.00;;;;;7.03;100.00;101040.16;5016599;28;45237;-79
2021/12/07 05:49:43;;;;;;;;;3.75;2.00;;;;;7.01;100.00;101039.16;5016912;28;46086;-78
2021/12/07 05:52:09;;;;;;;;;3.25;2.00;;;;;6.95;100.00;101031.06;5017003;28;45444;-78
2021/12/07 05:54:35;;;;;;;;;2.25;2.25;;;;;6.93;100.00;101027.50;5015924;28;45542;-79
2021/12/07 05:57:01;;;;;;;;;2.00;1.75;;;;;7.03;100.00;101052.13;5002628;28;45405;-78
2021/12/07 05:59:26;;;;;;;;;1.50;1.00;;;;;7.03;100.00;101057.25;5016520;28;46829;-79
2021/12/07 06:01:53;;;;;;;;;2.25;2.00;;;;;7.03;100.00;101055.59;5015925;28;45610;-82
2021/12/07 06:04:18;;;;;;;;;1.00;1.00;;;;;7.02;100.00;101051.25;5017361;28;45368;-79
2021/12/07 06:06:44;;;;;;;;;1.00;1.00;;;;;7.01;100.00;101052.03;5016898;28;45631;-79
2021/12/07 06:09:10;;;;;;;;;4.00;2.00;;;;;7.00;100.00;101036.50;5016512;28;45935;-77
2021/12/07 06:11:40;;;;;;;;;6.00;5.00;;;;;7.06;100.00;101044.59;5019172;28;45452;-85
2021/12/07 06:14:05;;;;;;;;;2.25;2.25;;;;;6.89;100.00;101010.06;5016481;28;45478;-77
2021/12/07 06:16:32;;;;;;;;;3.50;2.00;;;;;7.03;100.00;101022.13;5015371;28;45657;-77
2021/12/07 06:18:58;;;;;;;;;3.00;1.75;;;;;7.17;100.00;101033.28;5017130;28;45272;-78
2021/12/07 06:21:25;;;;;;;;;2.50;2.00;;;;;7.03;100.00;100993.81;5017263;28;45483;-78
2021/12/07 06:23:52;;;;;;;;;3.00;3.00;;;;;7.13;100.00;101009.03;5016674;28;45449;-79
2021/12/07 06:26:19;;;;;;;;;3.00;3.00;;;;;7.09;100.00;100989.03;5016714;28;45433;-78
2021/12/07 06:28:45;;;;;;;;;2.50;2.00;;;;;7.17;100.00;100993.78;5014971;28;46543;-78
2021/12/07 06:31:10;;;;;;;;;2.50;2.00;;;;;7.24;100.00;101001.94;5015155;28;45711;-77
2021/12/07 06:33:36;;;;;;;;;7.00;4.00;;;;;7.28;100.00;100990.19;5016413;28;45417;-78
2021/12/07 06:36:03;;;;;;;;;4.25;3.25;;;;;7.37;100.00;100989.81;5018909;28;45530;-79
2021/12/07 06:38:32;;;;;;;;;4.50;4.00;;;;;7.39;100.00;100983.09;5019890;28;45569;-77
2021/12/07 06:41:00;;;;;;;;;5.00;4.00;;;;;7.41;100.00;100982.38;5019998;28;45838;-77
2021/12/07 06:43:25;;;;;;;;;4.75;4.75;;;;;7.42;100.00;100988.44;5014626;28;45368;-80
2021/12/07 06:45:53;;;;;;;;;2.50;2.50;;;;;7.34;100.00;100979.34;5015511;28;45676;-78
2021/12/07 06:48:20;;;;;;;;;5.00;4.00;;;;;7.37;100.00;100984.69;4993948;28;46910;-77
2021/12/07 06:50:47;;;;;;;;;3.25;3.00;;;;;7.36;100.00;100980.31;5015345;28;45931;-77
2021/12/07 06:53:16;;;;;;;;;11.75;8.00;;;;;7.36;100.00;100978.66;5012735;28;45310;-80
2021/12/07 06:55:48;;;;;;;;;7.75;7.00;;;;;7.25;100.00;100951.34;5016507;28;45740;-78
2021/12/07 06:58:15;;;;;;;;;7.25;4.75;;;;;7.39;100.00;100968.53;5015616;28;45446;-79
2021/12/07 07:00:40;;;;;;;;;10.50;8.25;;;;;7.41;100.00;100966.03;5015156;28;46011;-78
2021/12/07 07:03:06;;;;;;;;;7.25;4.50;;;;;7.16;100.00;100915.63;5015362;28;45993;-79
2021/12/07 07:05:34;;;;;;;;;7.25;7.00;;;;;7.40;100.00;100954.84;5007274;28;45361;-78
2021/12/07 07:08:04;;;;;;;;;9.75;5.00;;;;;7.23;100.00;100927.19;4999432;28;47819;-87
2021/12/07 07:10:29;;;;;;;;;8.25;6.00;;;;;7.32;100.00;100950.91;5024077;28;45330;-79
2021/12/07 07:12:55;;;;;;;;;7.50;7.00;;;;;7.23;100.00;100937.50;5021409;28;45375;-86
2021/12/07 07:15:21;;;;;;;;;8.00;8.00;;;;;7.05;100.00;100925.28;4998077;28;45231;-82
2021/12/07 07:17:47;;;;;;;;;9.25;7.00;;;;;7.05;100.00;100939.84;5015422;28;45423;-79
2021/12/07 07:20:15;;;;;;;;;7.00;6.00;;;;;6.97;100.00;100932.53;5016747;28;45360;-81
2021/12/07 07:22:42;;;;;;;;;5.25;5.25;;;;;6.86;100.00;100931.00;5017396;28;45567;-78
2021/12/07 07:25:10;;;;;;;;;5.00;5.00;;;;;6.86;100.00;100930.13;5014187;28;45694;-78
2021/12/07 07:27:36;;;;;;;;;8.75;7.75;;;;;6.72;100.00;100916.38;5014268;28;46602;-77
2021/12/07 07:30:04;;;;;;;;;10.50;7.50;;;;;6.75;100.00;100916.56;5015391;28;45967;-79
2021/12/07 07:32:30;;;;;;;;;8.50;7.50;;;;;6.69;100.00;100913.63;5015913;28;45320;-80
2021/12/07 07:34:56;;;;;;;;;6.00;6.00;;;;;6.66;100.00;100907.50;5015537;28;45379;-80
2021/12/07 07:37:22;;;;;;;;;8.25;7.25;;;;;6.58;100.00;100897.50;5015211;28;45840;-80
2021/12/07 07:39:48;;;;;;;;;10.25;8.00;;;;;6.61;100.00;100895.13;5012466;28;45403;-75
2021/12/07 07:42:14;;;;;;;;;9.50;8.00;;;;;6.52;100.00;100868.84;4996365;28;45487;-81
2021/12/07 07:44:40;;;;;;;;;11.00;8.00;;;;;6.56;100.00;100891.38;5018157;28;45685;-78
2021/12/07 07:47:06;;;;;;;;;10.50;8.00;;;;;6.53;100.00;100891.22;5017538;28;45366;-80
2021/12/07 07:49:32;;;;;;;;;12.00;8.75;;;;;6.48;100.00;100876.38;5018651;28;45841;-75
2021/12/07 07:51:57;;;;;;;;;10.50;10.50;;;;;6.54;100.00;100880.09;5017285;28;45364;-77
2021/12/07 07:54:23;;;;;;;;;12.50;11.25;;;;;6.56;100.00;100869.13;5017724;28;45878;-74
2021/12/07 07:56:49;;;;;;;;;13.25;9.00;;;;;6.52;100.00;100858.56;5016232;28;46090;-74
2021/12/07 07:59:14;;;;;;;;;10.25;9.75;;;;;6.67;100.00;100887.78;5017002;28;45454;-75
2021/12/07 08:01:40;;;;;;;;;11.50;9.50;;;;;6.68;100.00;100878.41;5018430;28;45272;-76
2021/12/07 08:04:06;;;;;;;;;12.75;9.00;;;;;6.57;100.00;100839.13;5017199;28;46852;-77
2021/12/07 08:06:31;;;;;;;;;14.25;12.75;;;;;6.69;100.00;100859.59;5017617;28;46516;-74
2021/12/07 08:08:57;;;;;;;;;13.50;10.50;;;;;6.75;100.00;100862.53;5017722;28;45198;-75
2021/12/07 08:11:24;;;;;;;;;13.00;11.50;;;;;6.75;100.00;100852.25;5013745;28;45385;-81
2021/12/07 08:13:50;;;;;;;;;15.25;13.25;;;;;6.69;100.00;100846.75;4999414;28;45467;-75
2021/12/07 08:16:15;;;;;;;;;7.75;6.75;;;;;6.67;100.00;100838.91;5007133;28;45577;-75
2021/12/07 08:18:49;;;;;;;;;15.00;12.75;;;;;6.72;100.00;100850.38;4999252;28;45487;-76
2021/12/07 08:21:16;;;;;;;;;16.75;15.00;;;;;6.72;100.00;100834.03;5017912;28;45317;-77
2021/12/07 08:23:43;;;;;;;;;18.25;15.25;;;;;6.72;100.00;100834.03;5017176;28;45683;-78
2021/12/07 08:26:12;;;;;;;;;15.75;14.50;;;;;6.77;100.00;100830.06;5017759;28;45554;-77
2021/12/07 08:28:38;;;;;;;;;21.00;16.25;;;;;6.70;100.00;100805.66;5018067;28;45822;-78
2021/12/07 08:31:04;;;;;;;;;19.50;16.25;;;;;6.77;100.00;100815.50;4999676;28;45329;-76
2021/12/07 08:33:31;;;;;;;;;20.00;15.25;;;;;6.81;100.00;100817.47;5018182;28;45504;-75
2021/12/07 08:35:58;;;;;;;;;18.00;14.00;;;;;6.87;100.00;100816.97;5002378;28;46964;-75
2021/12/07 08:38:24;;;;;;;;;21.25;15.00;;;;;6.87;100.00;100809.25;5014468;28;45850;-80
2021/12/07 08:40:53;;;;;;;;;19.00;16.50;;;;;6.86;100.00;100819.44;5016256;28;45535;-76
2021/12/07 08:43:25;;;;;;;;;18.25;15.50;;;;;6.80;100.00;100818.28;5017002;28;45310;-76
2021/12/07 08:45:53;;;;;;;;;17.75;16.75;;;;;6.82;100.00;100808.97;5016490;28;46166;-78
2021/12/07 08:48:19;;;;;;;;;21.50;18.00;;;;;6.77;100.00;100805.22;4999246;28;45423;-76
2021/12/07 08:50:45;;;;;;;;;19.50;14.50;;;;;6.81;100.00;100806.28;5017449;28;45562;-77
2021/12/07 08:53:14;;;;;;;;;18.00;15.75;;;;;6.80;100.00;100786.53;5017217;28;45257;-78
2021/12/07 09:01:31;;;;;;;;;21.50;16.00;;;;;6.77;100.00;100771.75;4936868;28;45411;-78
2021/12/07 09:03:58;;;;;;;;;18.50;14.25;;;;;6.76;100.00;100751.97;5000548;28;45333;-80
2021/12/07 09:06:25;;;;;;;;;15.75;14.25;;;;;6.77;100.00;100735.75;5016368;28;46235;-81
2021/12/07 09:08:51;;;;;;;;;19.75;18.00;;;;;6.76;100.00;100731.38;5016324;28;45889;-80
2021/12/07 09:11:18;;;;;;;;;23.00;17.00;;;;;6.66;100.00;100723.94;5016006;28;45462;-80
2021/12/07 09:13:44;;;;;;;;;14.00;13.50;;;;;6.47;100.00;100702.28;5016895;28;45540;-84
2021/12/07 09:16:13;;;;;;;;;16.25;14.75;;;;;6.47;100.00;100724.53;4998313;28;45488;-79
2021/12/07 09:18:38;;;;;;;;;19.25;14.00;;;;;6.45;100.00;100714.16;5015960;28;45490;-79
2021/12/07 09:21:05;;;;;;;;;19.00;16.50;;;;;6.55;100.00;100712.09;5015439;28;45309;-78
2021/12/07 09:23:31;;;;;;;;;16.00;14.00;;;;;6.52;100.00;100699.97;5016595;28;45422;-76
2021/12/07 09:25:56;;;;;;;;;15.25;13.00;;;;;6.33;100.00;100661.97;5016144;28;45655;-76
2021/12/07 09:28:23;;;;;;;;;16.25;13.00;;;;;6.35;100.00;100676.72;5015414;28;45450;-78
2021/12/07 09:30:52;;;;;;;;;16.50;14.25;;;;;6.44;100.00;100698.63;5016519;28;45364;-75
2021/12/07 09:33:23;;;;;;;;;13.75;11.50;;;;;6.39;100.00;100713.78;5017207;28;45583;-78
2021/12/07 09:35:50;;;;;;;;;17.25;12.75;;;;;6.28;100.00;100718.25;5015478;28;45473;-79
2021/12/07 09:38:16;;;;;;;;;10.50;7.25;;;;;6.31;100.00;100702.16;4994664;28;45519;-73
2021/12/07 09:40:43;;;;;;;;;16.00;15.75;;;;;6.37;100.00;100717.06;5016713;28;45463;-73
2021/12/07 09:43:10;;;;;;;;;13.50;12.75;;;;;6.34;100.00;100712.59;5013081;28;45624;-75
2021/12/07 09:45:36;;;;;;;;;13.00;11.25;;;;;6.29;100.00;100707.19;5015725;28;46106;-75
2021/12/07 09:48:05;;;;;;;;;20.75;16.00;;;;;6.22;100.00;100722.16;5011896;28;45628;-76
2021/12/07 09:50:33;;;;;;;;;17.50;12.00;;;;;6.17;100.00;100704.78;5015425;28;45570;-76
2021/12/07 09:52:59;;;;;;;;;14.25;11.00;;;;;6.20;100.00;100701.50;4998840;28;45319;-77
2021/12/07 09:55:28;;;;;;;;;11.00;10.00;;;;;6.19;100.00;100694.56;5014266;28;46156;-76
2021/12/07 09:57:54;;;;;;;;;15.75;12.75;;;;;6.14;100.00;100694.31;5010655;28;45801;-76
2021/12/07 10:00:22;;;;;;;;;17.50;14.50;;;;;6.10;100.00;100699.16;5016540;28;45397;-76
2021/12/07 10:02:50;;;;;;;;;13.75;12.25;;;;;6.11;100.00;100713.78;5010691;28;45710;-75
2021/12/07 10:05:19;;;;;;;;;16.50;11.75;;;;;6.11;100.00;100719.81;5015119;28;46132;-77
2021/12/07 10:07:49;;;;;;;;;15.00;11.00;;;;;6.10;100.00;100712.03;5015219;28;46059;-78
2021/12/07 10:10:27;;;;;;;;;15.75;11.00;;;;;6.15;100.00;100708.06;5016018;28;45352;-77
2021/12/07 10:12:53;;;;;;;;;10.75;9.50;;;;;6.11;100.00;100693.22;5013490;28;45504;-76
2021/12/07 10:15:21;;;;;;;;;11.50;10.50;;;;;6.10;100.00;100676.03;5015910;28;45490;-77
2021/12/07 10:18:12;;;;;;;;;12.00;11.75;;;;;6.06;100.00;100661.22;5014429;28;45971;-75
2021/12/07 10:21:13;;;;;;;;;10.75;9.50;;;;;6.03;100.00;100660.25;5007098;28;45502;-76
2021/12/07 10:23:49;;;;;;;;;16.00;12.00;;;;;6.00;100.00;100641.16;4991101;28;45443;-76
2021/12/07 10:26:22;;;;;;;;;11.75;11.75;;;;;5.89;100.00;100614.81;5007210;28;45610;-77
2021/12/07 10:28:50;;;;;;;;;16.50;11.00;;;;;6.03;100.00;100624.28;5006986;28;45771;-75
2021/12/07 10:31:23;;;;;;;;;17.75;14.75;;;;;6.09;100.00;100622.84;5004548;28;45348;-77
2021/12/07 10:33:54;;;;;;;;;12.75;12.50;;;;;6.13;100.00;100611.97;5010096;28;46252;-74
2021/12/07 10:36:21;;;;;;;;;23.75;15.50;;;;;6.20;100.00;100608.94;5012575;28;45651;-76
2021/12/07 10:38:53;;;;;;;;;16.00;15.25;;;;;6.19;100.00;100589.19;5016886;28;45275;-76
2021/12/07 10:41:22;;;;;;;;;13.25;11.00;;;;;6.29;100.00;100582.91;5017195;28;45583;-76
2021/12/07 10:44:04;;;;;;;;;8.50;7.00;;;;;6.32;100.00;100581.41;5007673;28;45472;-76
2021/12/07 10:46:53;;;;;;;;;17.25;12.00;;;;;6.31;100.00;100558.19;5010652;28;45718;-75
2021/12/07 10:49:33;;;;;;;;;17.75;15.75;;;;;6.38;100.00;100551.69;5014715;28;45348;-76
2021/12/07 10:52:29;;;;;;;;;16.50;15.00;;;;;6.44;100.00;100534.03;4997583;28;45454;-76
2021/12/07 10:55:06;;;;;;;;;15.25;10.25;;;;;6.47;100.00;100529.09;5005893;28;45530;-76
2021/12/07 10:57:38;;;;;;;;;11.25;8.25;;;;;6.44;100.00;100509.19;5008279;28;45442;-76
2021/12/07 11:00:13;;;;;;;;;11.75;10.75;;;;;6.46;100.00;100512.75;5012051;28;45464;-78
2021/12/07 11:02:41;;;;;;;;;12.00;10.00;;;;;6.50;100.00;100496.72;5006532;28;45462;-78
2021/12/07 11:05:29;;;;;;;;;17.00;15.00;;;;;6.59;100.00;100469.72;5012345;28;45368;-77
2021/12/07 11:07:57;;;;;;;;;15.50;10.25;;;;;6.71;100.00;100477.22;5005969;28;45344;-77
2021/12/07 11:10:30;;;;;;;;;14.25;13.50;;;;;6.71;100.00;100480.69;5010442;28;45803;-79
2021/12/07 11:13:19;;;;;;;;;13.75;12.75;;;;;6.73;100.00;100439.59;5009651;28;45476;-80
2021/12/07 11:15:58;;;;;;;;;19.50;13.25;;;;;6.87;100.00;100425.78;4993386;28;46770;-75
2021/12/07 11:18:38;;;;;;;;;14.00;12.25;;;;;6.94;100.00;100422.72;5018283;28;45526;-78
2021/12/07 11:21:10;;;;;;;;;16.25;13.00;;;;;6.91;100.00;100395.97;5004512;28;45417;-76
2021/12/07 11:23:46;;;;;;;;;20.75;14.25;;;;;6.99;100.00;100397.25;5026343;28;45190;-79
2021/12/07 11:31:56;;;;;;;;;17.00;15.50;;;;;7.10;100.00;100380.66;5012580;28;45698;-81
2021/12/07 11:34:36;;;;;;;;;18.00;13.25;;;;;7.09;100.00;100352.28;5017501;28;45468;-80
2021/12/07 11:37:06;;;;;;;;;19.50;14.25;;;;;7.16;100.00;100345.75;5012307;28;45526;-78
2021/12/07 11:39:46;;;;;;;;;18.50;12.75;;;;;7.24;100.00;100342.75;5017820;28;45922;-89
2021/12/07 11:42:16;;;;;;;;;14.75;10.25;;;;;7.28;100.00;100341.25;5018345;28;45936;-81
2021/12/07 11:44:54;;;;;;;;;15.25;10.50;;;;;7.38;100.00;100328.00;5018189;28;45289;-79
2021/12/07 11:47:39;;;;;;;;;20.50;14.00;;;;;7.47;100.00;100325.00;5018327;28;45487;-83
2021/12/07 11:50:16;;;;;;;;;13.00;11.00;;;;;7.51;100.00;100323.44;4999039;28;45844;-81
2021/12/07 11:52:42;;;;;;;;;9.00;9.00;;;;;7.54;100.00;100298.75;5017660;28;45456;-75
2021/12/07 11:55:09;;;;;;;;;13.50;12.25;;;;;7.47;100.00;100281.19;5014695;28;45344;-77
2021/12/07 11:57:36;;;;;;;;;13.25;10.75;;;;;7.49;100.00;100277.00;5018309;28;45507;-77
2021/12/07 12:00:05;;;;;;;;;9.50;8.00;;;;;7.47;100.00;100258.03;5015299;28;45442;-77
2021/12/07 12:02:31;;;;;;;;;12.00;8.00;;;;;7.58;100.00;100267.16;5016692;28;45942;-78
2021/12/07 12:04:56;;;;;;;;;14.00;10.00;;;;;7.52;100.00;100232.47;5014271;28;45420;-78
2021/12/07 12:07:22;;;;;;;;;9.00;8.50;;;;;7.61;100.00;100245.81;5017513;28;45378;-78
2021/12/07 12:09:52;;;;;;;;;8.25;8.25;;;;;7.63;100.00;100227.84;5012136;28;46104;-78
2021/12/07 12:12:34;;;;;;;;;9.50;9.00;;;;;7.64;100.00;100239.94;5014558;28;45289;-77
2021/12/07 12:15:38;;;;;;;;;14.00;10.25;;;;;7.68;100.00;100227.25;5018761;28;45473;-78
2021/12/07 12:18:19;;;;;;;;;8.00;7.00;;;;;7.68;100.00;100206.66;4993566;28;45648;-80
2021/12/07 12:21:06;;;;;;;;;7.25;7.25;;;;;7.68;100.00;100211.78;5012324;28;45422;-80
2021/12/07 12:23:59;;;;;;;;;10.00;6.00;;;;;7.74;100.00;100206.91;5004478;28;45499;-77
2021/12/07 12:26:27;;;;;;;;;14.00;11.50;;;;;7.73;100.00;100174.22;5015128;28;45499;-79
2021/12/07 12:28:54;;;;;;;;;10.50;9.75;;;;;7.75;100.00;100185.50;5015395;28;45400;-77
2021/12/07 12:31:49;;;;;;;;;9.75;8.25;;;;;7.87;100.00;100177.47;5015791;28;45569;-79
2021/12/07 12:34:23;;;;;;;;;9.50;8.50;;;;;7.89;100.00;100162.06;5018911;28;45391;-78
2021/12/07 12:37:06;;;;;;;;;8.00;7.25;;;;;7.81;100.00;100115.31;5022029;28;45487;-82
2021/12/07 12:39:49;;;;;;;;;9.50;7.25;;;;;7.93;100.00;100126.97;5021462;28;45541;-84
2021/12/07 12:42:27;;;;;;;;;10.25;9.25;;;;;7.98;100.00;100112.63;5017532;28;45308;-79
2021/12/07 12:45:19;;;;;;;;;11.00;10.00;;;;;7.89;100.00;100097.63;5017649;28;45427;-88
2021/12/07 12:47:45;;;;;;;;;9.00;7.50;;;;;7.97;100.00;100093.66;5017760;28;45451;-84
2021/12/07 12:50:13;;;;;;;;;8.25;8.00;;;;;8.08;100.00;100067.47;5017844;28;45518;-82
2021/12/07 12:52:47;;;;;;;;;7.75;6.00;;;;;8.14;100.00;100071.19;5016837;28;45955;-82
2021/12/07 12:55:51;;;;;;;;;7.25;7.00;;;;;8.19;100.00;100058.50;5017375;28;45939;-78
2021/12/07 12:58:20;;;;;;;;;9.75;8.75;;;;;8.21;100.00;100056.88;5017866;28;45446;-78
2021/12/07 13:01:04;;;;;;;;;8.00;6.00;;;;;8.20;100.00;100073.16;5021521;28;45328;-84
2021/12/07 13:04:06;;;;;;;;;11.75;7.25;;;;;8.21;100.00;100028.50;5018568;28;46193;-86
2021/12/07 13:06:31;;;;;;;;;7.50;4.75;;;;;8.25;100.00;100042.41;5002443;28;45779;-83
2021/12/07 13:09:01;;;;;;;;;4.50;4.25;;;;;8.22;100.00;100027.69;5001703;28;45581;-78
2021/12/07 13:11:43;;;;;;;;;7.00;5.25;;;;;8.29;100.00;100037.44;5003998;28;45488;-77